sensor_id;sensor_type;location;lat;lon;timestamp;pressure;altitude;pressure_sealevel;temperature;humidity
49515;BME280;35415;47.870;16.058;2023-02-01T00:01:34;97390.94;;;4.75;64.72
49515;BME280;35415;47.870;16.058;2023-02-01T00:04:02;97404.25;;;4.75;65.01
49515;BME280;35415;47.870;16.058;2023-02-01T00:06:29;97410.06;;;4.72;65.16
49515;BME280;35415;47.870;16.058;2023-02-01T00:08:56;97428.00;;;4.76;65.25
49515;BME280;35415;47.870;16.058;2023-02-01T00:11:25;97428.81;;;4.77;65.22
49515;BME280;35415;47.870;16.058;2023-02-01T00:13:52;97414.91;;;4.75;65.43
49515;BME280;35415;47.870;16.058;2023-02-01T00:16:22;97406.13;;;4.74;65.45
49515;BME280;35415;47.870;16.058;2023-02-01T00:18:51;97422.09;;;4.74;65.92
49515;BME280;35415;47.870;16.058;2023-02-01T00:21:20;97414.09;;;4.74;65.90
49515;BME280;35415;47.870;16.058;2023-02-01T00:23:48;97410.19;;;4.77;66.05
49515;BME280;35415;47.870;16.058;2023-02-01T00:26:18;97405.53;;;4.72;66.61
49515;BME280;35415;47.870;16.058;2023-02-01T00:28:47;97408.91;;;4.79;66.70
49515;BME280;35415;47.870;16.058;2023-02-01T00:31:14;97399.06;;;4.80;66.59
49515;BME280;35415;47.870;16.058;2023-02-01T00:33:41;97389.16;;;4.69;66.61
49515;BME280;35415;47.870;16.058;2023-02-01T00:36:09;97395.59;;;4.79;67.01
49515;BME280;35415;47.870;16.058;2023-02-01T00:38:39;97390.84;;;4.81;67.07
49515;BME280;35415;47.870;16.058;2023-02-01T00:41:09;97406.81;;;4.81;66.93
49515;BME280;35415;47.870;16.058;2023-02-01T00:43:36;97384.34;;;4.77;67.20
49515;BME280;35415;47.870;16.058;2023-02-01T00:46:05;97393.38;;;4.76;67.32
49515;BME280;35415;47.870;16.058;2023-02-01T00:48:33;97385.16;;;4.78;67.54
49515;BME280;35415;47.870;16.058;2023-02-01T00:51:01;97382.50;;;4.78;67.36
49515;BME280;35415;47.870;16.058;2023-02-01T00:53:29;97382.22;;;4.68;67.50
49515;BME280;35415;47.870;16.058;2023-02-01T00:55:56;97388.63;;;4.78;67.53
49515;BME280;35415;47.870;16.058;2023-02-01T00:58:23;97396.16;;;4.81;67.13
49515;BME280;35415;47.870;16.058;2023-02-01T01:01:00;97390.84;;;4.81;67.10
49515;BME280;35415;47.870;16.058;2023-02-01T01:03:30;97403.13;;;4.82;66.82
49515;BME280;35415;47.870;16.058;2023-02-01T01:06:01;97411.09;;;4.82;66.99
49515;BME280;35415;47.870;16.058;2023-02-01T01:08:28;97396.97;;;4.82;66.94
49515;BME280;35415;47.870;16.058;2023-02-01T01:10:56;97393.97;;;4.78;66.99
49515;BME280;35415;47.870;16.058;2023-02-01T01:13:23;97414.00;;;4.81;67.37
49515;BME280;35415;47.870;16.058;2023-02-01T01:15:50;97413.66;;;4.77;66.95
49515;BME280;35415;47.870;16.058;2023-02-01T01:18:17;97411.91;;;4.83;66.88
49515;BME280;35415;47.870;16.058;2023-02-01T01:20:47;97407.16;;;4.85;67.28
49515;BME280;35415;47.870;16.058;2023-02-01T01:23:14;97412.06;;;4.88;67.17
49515;BME280;35415;47.870;16.058;2023-02-01T01:25:41;97405.94;;;4.88;67.65
49515;BME280;35415;47.870;16.058;2023-02-01T01:28:08;97412.06;;;4.88;67.66
49515;BME280;35415;47.870;16.058;2023-02-01T01:30:36;97381.31;;;4.74;68.18
49515;BME280;35415;47.870;16.058;2023-02-01T01:33:03;97375.53;;;4.77;68.05
49515;BME280;35415;47.870;16.058;2023-02-01T01:35:31;97390.47;;;4.78;68.50
49515;BME280;35415;47.870;16.058;2023-02-01T01:38:00;97404.28;;;4.87;68.81
49515;BME280;35415;47.870;16.058;2023-02-01T01:40:29;97401.63;;;4.87;68.96
49515;BME280;35415;47.870;16.058;2023-02-01T01:42:57;97380.09;;;4.88;69.05
49515;BME280;35415;47.870;16.058;2023-02-01T01:45:25;97375.19;;;4.85;69.54
49515;BME280;35415;47.870;16.058;2023-02-01T01:47:56;97376.69;;;4.81;69.94
49515;BME280;35415;47.870;16.058;2023-02-01T01:50:27;97388.63;;;4.78;70.27
49515;BME280;35415;47.870;16.058;2023-02-01T01:52:57;97390.03;;;4.81;69.77
49515;BME280;35415;47.870;16.058;2023-02-01T01:55:31;97362.56;;;4.80;70.10
49515;BME280;35415;47.870;16.058;2023-02-01T01:58:01;97379.00;;;4.77;70.56
49515;BME280;35415;47.870;16.058;2023-02-01T02:00:31;97372.88;;;4.77;70.70
49515;BME280;35415;47.870;16.058;2023-02-01T02:03:03;97381.31;;;4.74;70.65
49515;BME280;35415;47.870;16.058;2023-02-01T02:05:33;97372.50;;;4.73;70.78
49515;BME280;35415;47.870;16.058;2023-02-01T02:08:00;97369.94;;;4.67;70.31
49515;BME280;35415;47.870;16.058;2023-02-01T02:10:29;97373.63;;;4.66;70.94
49515;BME280;35415;47.870;16.058;2023-02-01T02:13:12;97384.00;;;4.74;71.17
49515;BME280;35415;47.870;16.058;2023-02-01T02:15:45;97381.16;;;4.69;71.43
49515;BME280;35415;47.870;16.058;2023-02-01T02:18:22;97379.13;;;4.71;71.63
49515;BME280;35415;47.870;16.058;2023-02-01T02:21:14;97378.72;;;4.67;72.15
49515;BME280;35415;47.870;16.058;2023-02-01T02:24:18;97381.31;;;4.74;72.51
49515;BME280;35415;47.870;16.058;2023-02-01T02:27:07;97389.09;;;4.75;73.17
49515;BME280;35415;47.870;16.058;2023-02-01T02:30:13;97398.59;;;4.71;73.43
49515;BME280;35415;47.870;16.058;2023-02-01T02:35:58;97394.50;;;4.69;74.71
49515;BME280;35415;47.870;16.058;2023-02-01T02:38:33;97381.41;;;4.67;75.66
49515;BME280;35415;47.870;16.058;2023-02-01T02:41:18;97389.84;;;4.64;76.64
49515;BME280;35415;47.870;16.058;2023-02-01T02:44:04;97398.44;;;4.66;77.51
49515;BME280;35415;47.870;16.058;2023-02-01T02:46:55;97396.09;;;4.58;78.20
49515;BME280;35415;47.870;16.058;2023-02-01T02:49:49;97411.50;;;4.56;78.53
49515;BME280;35415;47.870;16.058;2023-02-01T02:52:45;97406.59;;;4.53;79.16
49515;BME280;35415;47.870;16.058;2023-02-01T02:55:34;97394.06;;;4.42;79.84
49515;BME280;35415;47.870;16.058;2023-02-01T02:58:05;97408.91;;;4.49;80.32
49515;BME280;35415;47.870;16.058;2023-02-01T03:00:51;97404.13;;;4.40;80.85
49515;BME280;35415;47.870;16.058;2023-02-01T03:03:38;97422.44;;;4.48;81.36
49515;BME280;35415;47.870;16.058;2023-02-01T03:06:23;97416.19;;;4.42;82.51
49515;BME280;35415;47.870;16.058;2023-02-01T03:08:54;97409.69;;;4.38;82.35
49515;BME280;35415;47.870;16.058;2023-02-01T03:11:24;97425.66;;;4.38;83.70
49515;BME280;35415;47.870;16.058;2023-02-01T03:14:14;97424.03;;;4.37;83.08
49515;BME280;35415;47.870;16.058;2023-02-01T03:16:44;97405.59;;;4.36;83.18
49515;BME280;35415;47.870;16.058;2023-02-01T03:19:15;97420.56;;;4.37;82.20
49515;BME280;35415;47.870;16.058;2023-02-01T03:21:47;97409.97;;;4.30;80.72
49515;BME280;35415;47.870;16.058;2023-02-01T03:24:19;97339.19;;;3.92;80.06
49515;BME280;35415;47.870;16.058;2023-02-01T03:26:49;97374.34;;;4.13;78.68
49515;BME280;35415;47.870;16.058;2023-02-01T03:29:22;97383.34;;;4.30;77.27
49515;BME280;35415;47.870;16.058;2023-02-01T03:31:50;97379.19;;;4.34;76.66
49515;BME280;35415;47.870;16.058;2023-02-01T03:34:18;97393.09;;;4.36;74.53
49515;BME280;35415;47.870;16.058;2023-02-01T03:36:49;97373.72;;;4.29;73.58
49515;BME280;35415;47.870;16.058;2023-02-01T03:39:22;97390.00;;;4.39;73.45
49515;BME280;35415;47.870;16.058;2023-02-01T03:41:55;97382.81;;;4.40;72.90
49515;BME280;35415;47.870;16.058;2023-02-01T03:44:26;97347.50;;;4.14;72.04
49515;BME280;35415;47.870;16.058;2023-02-01T03:46:56;97379.59;;;4.49;70.30
49515;BME280;35415;47.870;16.058;2023-02-01T03:49:27;97401.94;;;4.48;70.84
49515;BME280;35415;47.870;16.058;2023-02-01T03:51:57;97368.72;;;4.51;70.30
49515;BME280;35415;47.870;16.058;2023-02-01T03:54:27;97376.47;;;4.52;70.06
49515;BME280;35415;47.870;16.058;2023-02-01T03:56:57;97394.47;;;4.57;69.24
49515;BME280;35415;47.870;16.058;2023-02-01T03:59:26;97394.38;;;4.64;67.99
49515;BME280;35415;47.870;16.058;2023-02-01T04:01:53;97382.09;;;4.63;68.20
49515;BME280;35415;47.870;16.058;2023-02-01T04:04:20;97359.97;;;4.62;67.52
49515;BME280;35415;47.870;16.058;2023-02-01T04:06:48;97380.81;;;4.65;67.39
49515;BME280;35415;47.870;16.058;2023-02-01T04:09:16;97374.00;;;4.69;66.51
49515;BME280;35415;47.870;16.058;2023-02-01T04:11:45;97382.38;;;4.73;66.54
49515;BME280;35415;47.870;16.058;2023-02-01T04:14:12;97368.88;;;4.68;65.81
49515;BME280;35415;47.870;16.058;2023-02-01T04:16:39;97373.91;;;4.76;65.38
49515;BME280;35415;47.870;16.058;2023-02-01T04:19:06;97342.16;;;4.74;65.48
49515;BME280;35415;47.870;16.058;2023-02-01T04:21:33;97362.78;;;4.79;65.59
49515;BME280;35415;47.870;16.058;2023-02-01T04:24:01;97351.91;;;4.80;65.38
49515;BME280;35415;47.870;16.058;2023-02-01T04:26:28;97367.66;;;4.82;65.37
49515;BME280;35415;47.870;16.058;2023-02-01T04:28:56;97365.81;;;4.82;65.16
49515;BME280;35415;47.870;16.058;2023-02-01T04:31:24;97340.31;;;4.75;65.23
49515;BME280;35415;47.870;16.058;2023-02-01T04:33:53;97333.94;;;4.76;65.61
49515;BME280;35415;47.870;16.058;2023-02-01T04:36:21;97352.81;;;4.74;65.58
49515;BME280;35415;47.870;16.058;2023-02-01T04:38:48;97348.69;;;4.90;65.12
49515;BME280;35415;47.870;16.058;2023-02-01T04:41:15;97332.78;;;4.83;65.22
49515;BME280;35415;47.870;16.058;2023-02-01T04:43:44;97354.59;;;4.92;65.45
49515;BME280;35415;47.870;16.058;2023-02-01T04:46:13;97334.09;;;4.93;65.95
49515;BME280;35415;47.870;16.058;2023-02-01T04:48:41;97347.19;;;4.94;65.78
49515;BME280;35415;47.870;16.058;2023-02-01T04:51:09;97334.44;;;4.96;66.07
49515;BME280;35415;47.870;16.058;2023-02-01T04:53:38;97332.00;;;4.95;66.46
49515;BME280;35415;47.870;16.058;2023-02-01T04:56:07;97326.91;;;4.93;66.44
49515;BME280;35415;47.870;16.058;2023-02-01T04:58:34;97342.91;;;4.93;66.57
49515;BME280;35415;47.870;16.058;2023-02-01T05:01:03;97298.59;;;4.80;66.66
49515;BME280;35415;47.870;16.058;2023-02-01T05:03:32;97313.91;;;4.97;67.51
49515;BME280;35415;47.870;16.058;2023-02-01T05:06:00;97317.88;;;4.94;67.61
49515;BME280;35415;47.870;16.058;2023-02-01T05:08:29;97324.81;;;4.95;67.75
49515;BME280;35415;47.870;16.058;2023-02-01T05:10:56;97304.78;;;4.93;68.33
49515;BME280;35415;47.870;16.058;2023-02-01T05:13:24;97320.88;;;4.98;69.13
49515;BME280;35415;47.870;16.058;2023-02-01T05:16:08;97335.81;;;4.99;69.31
49515;BME280;35415;47.870;16.058;2023-02-01T05:18:37;97332.34;;;4.98;69.87
49515;BME280;35415;47.870;16.058;2023-02-01T05:21:04;97334.66;;;4.95;70.75
49515;BME280;35415;47.870;16.058;2023-02-01T05:23:31;97325.63;;;4.96;71.18
49515;BME280;35415;47.870;16.058;2023-02-01T05:26:18;97337.78;;;4.92;71.22
49515;BME280;35415;47.870;16.058;2023-02-01T05:28:45;97310.88;;;4.81;72.15
49515;BME280;35415;47.870;16.058;2023-02-01T05:31:12;97297.09;;;4.73;72.75
49515;BME280;35415;47.870;16.058;2023-02-01T05:33:41;97324.94;;;4.89;73.63
49515;BME280;35415;47.870;16.058;2023-02-01T05:36:08;97338.50;;;4.87;74.10
49515;BME280;35415;47.870;16.058;2023-02-01T05:38:36;97320.16;;;4.79;74.02
49515;BME280;35415;47.870;16.058;2023-02-01T05:41:04;97338.69;;;4.86;74.23
49515;BME280;35415;47.870;16.058;2023-02-01T05:43:31;97333.34;;;4.86;74.95
49515;BME280;35415;47.870;16.058;2023-02-01T05:45:58;97317.38;;;4.74;75.41
49515;BME280;35415;47.870;16.058;2023-02-01T05:48:26;97339.16;;;4.82;75.18
49515;BME280;35415;47.870;16.058;2023-02-01T05:50:55;97337.31;;;4.83;75.29
49515;BME280;35415;47.870;16.058;2023-02-01T05:53:22;97358.97;;;4.75;76.02
49515;BME280;35415;47.870;16.058;2023-02-01T05:55:49;97325.69;;;4.66;75.86
49515;BME280;35415;47.870;16.058;2023-02-01T05:58:17;97350.16;;;4.74;76.39
49515;BME280;35415;47.870;16.058;2023-02-01T06:00:43;97335.75;;;4.64;76.36
49515;BME280;35415;47.870;16.058;2023-02-01T06:03:10;97344.84;;;4.74;76.40
49515;BME280;35415;47.870;16.058;2023-02-01T06:05:37;97353.63;;;4.75;76.66
49515;BME280;35415;47.870;16.058;2023-02-01T06:08:06;97344.03;;;4.74;76.88
49515;BME280;35415;47.870;16.058;2023-02-01T06:10:34;97338.91;;;4.72;76.99
49515;BME280;35415;47.870;16.058;2023-02-01T06:13:03;97340.31;;;4.75;76.44
49515;BME280;35415;47.870;16.058;2023-02-01T06:15:31;97356.16;;;4.70;76.11
49515;BME280;35415;47.870;16.058;2023-02-01T06:17:58;97308.50;;;4.50;75.70
49515;BME280;35415;47.870;16.058;2023-02-01T06:20:25;97352.94;;;4.79;75.02
49515;BME280;35415;47.870;16.058;2023-02-01T06:22:53;97333.94;;;4.76;75.12
49515;BME280;35415;47.870;16.058;2023-02-01T06:25:21;97349.47;;;4.79;75.74
49515;BME280;35415;47.870;16.058;2023-02-01T06:27:48;97343.09;;;4.80;74.99
49515;BME280;35415;47.870;16.058;2023-02-01T06:30:16;97353.53;;;4.81;75.03
49515;BME280;35415;47.870;16.058;2023-02-01T06:32:44;97354.09;;;4.83;75.15
49515;BME280;35415;47.870;16.058;2023-02-01T06:35:11;97338.94;;;4.84;75.68
49515;BME280;35415;47.870;16.058;2023-02-01T06:37:42;97336.50;;;4.82;74.90
49515;BME280;35415;47.870;16.058;2023-02-01T06:40:11;97332.13;;;4.88;75.03
49515;BME280;35415;47.870;16.058;2023-02-01T06:42:39;97329.06;;;4.84;75.18
49515;BME280;35415;47.870;16.058;2023-02-01T06:45:08;97321.31;;;4.83;75.02
49515;BME280;35415;47.870;16.058;2023-02-01T06:47:36;97301.84;;;4.82;74.39
49515;BME280;35415;47.870;16.058;2023-02-01T06:50:05;97309.59;;;4.84;73.37
49515;BME280;35415;47.870;16.058;2023-02-01T06:52:32;97285.41;;;4.74;73.16
49515;BME280;35415;47.870;16.058;2023-02-01T06:54:59;97318.91;;;4.93;71.56
49515;BME280;35415;47.870;16.058;2023-02-01T06:57:27;97318.66;;;4.95;71.25
49515;BME280;35415;47.870;16.058;2023-02-01T06:59:58;97331.53;;;4.98;70.36
49515;BME280;35415;47.870;16.058;2023-02-01T07:02:25;97337.22;;;5.01;69.07
49515;BME280;35415;47.870;16.058;2023-02-01T07:04:52;97343.50;;;5.07;68.90
49515;BME280;35415;47.870;16.058;2023-02-01T07:07:20;97361.47;;;5.11;68.80
49515;BME280;35415;47.870;16.058;2023-02-01T07:09:49;97336.97;;;5.03;68.29
49515;BME280;35415;47.870;16.058;2023-02-01T07:12:17;97314.28;;;4.89;67.40
49515;BME280;35415;47.870;16.058;2023-02-01T07:14:45;97365.31;;;5.27;67.68
49515;BME280;35415;47.870;16.058;2023-02-01T07:17:15;97364.03;;;5.30;67.22
49515;BME280;35415;47.870;16.058;2023-02-01T07:19:42;97363.91;;;5.36;67.31
49515;BME280;35415;47.870;16.058;2023-02-01T07:22:09;97364.84;;;5.42;67.32
49515;BME280;35415;47.870;16.058;2023-02-01T07:24:36;97358.56;;;5.48;66.92
49515;BME280;35415;47.870;16.058;2023-02-01T07:27:03;97351.50;;;5.54;66.95
49515;BME280;35415;47.870;16.058;2023-02-01T07:29:31;97340.59;;;5.55;67.38
49515;BME280;35415;47.870;16.058;2023-02-01T07:31:58;97342.56;;;5.60;66.75
49515;BME280;35415;47.870;16.058;2023-02-01T07:34:29;97333.84;;;5.53;66.87
49515;BME280;35415;47.870;16.058;2023-02-01T07:36:57;97348.81;;;5.65;66.82
49515;BME280;35415;47.870;16.058;2023-02-01T07:39:25;97341.97;;;5.69;66.61
49515;BME280;35415;47.870;16.058;2023-02-01T07:41:53;97346.97;;;5.78;65.81
49515;BME280;35415;47.870;16.058;2023-02-01T07:44:22;97343.00;;;5.80;66.73
49515;BME280;35415;47.870;16.058;2023-02-01T07:46:49;97346.34;;;5.87;66.46
49515;BME280;35415;47.870;16.058;2023-02-01T07:49:16;97344.28;;;5.89;66.59
49515;BME280;35415;47.870;16.058;2023-02-01T07:51:45;97340.69;;;5.95;65.71
49515;BME280;35415;47.870;16.058;2023-02-01T07:54:12;97332.19;;;5.98;66.30
49515;BME280;35415;47.870;16.058;2023-02-01T07:56:39;97319.41;;;6.00;66.30
49515;BME280;35415;47.870;16.058;2023-02-01T07:59:06;97322.41;;;6.04;67.05
49515;BME280;35415;47.870;16.058;2023-02-01T08:01:33;97320.34;;;6.06;66.94
49515;BME280;35415;47.870;16.058;2023-02-01T08:04:00;97315.00;;;6.06;65.68
49515;BME280;35415;47.870;16.058;2023-02-01T08:06:30;97306.59;;;6.14;64.89
49515;BME280;35415;47.870;16.058;2023-02-01T08:08:59;97306.13;;;6.17;64.64
49515;BME280;35415;47.870;16.058;2023-02-01T08:11:26;97308.78;;;6.17;64.23
49515;BME280;35415;47.870;16.058;2023-02-01T08:13:53;97289.06;;;6.18;63.49
49515;BME280;35415;47.870;16.058;2023-02-01T08:16:21;97308.69;;;6.24;62.56
49515;BME280;35415;47.870;16.058;2023-02-01T08:18:48;97308.84;;;6.34;61.87
49515;BME280;35415;47.870;16.058;2023-02-01T08:21:18;97284.72;;;6.29;61.59
49515;BME280;35415;47.870;16.058;2023-02-01T08:23:46;97285.94;;;6.38;60.51
49515;BME280;35415;47.870;16.058;2023-02-01T08:26:15;97294.31;;;6.42;61.13
49515;BME280;35415;47.870;16.058;2023-02-01T08:28:45;97285.56;;;6.46;60.61
49515;BME280;35415;47.870;16.058;2023-02-01T08:31:14;97227.38;;;6.20;60.19
49515;BME280;35415;47.870;16.058;2023-02-01T08:33:43;97283.53;;;6.53;59.91
49515;BME280;35415;47.870;16.058;2023-02-01T08:36:10;97302.84;;;6.55;60.01
49515;BME280;35415;47.870;16.058;2023-02-01T08:38:38;97290.03;;;6.57;59.30
49515;BME280;35415;47.870;16.058;2023-02-01T08:41:06;97281.78;;;6.59;59.10
49515;BME280;35415;47.870;16.058;2023-02-01T08:43:34;97264.69;;;6.60;59.61
49515;BME280;35415;47.870;16.058;2023-02-01T08:46:02;97245.50;;;6.63;59.33
49515;BME280;35415;47.870;16.058;2023-02-01T08:48:29;97227.03;;;6.61;59.16
49515;BME280;35415;47.870;16.058;2023-02-01T08:50:56;97233.25;;;6.67;58.59
49515;BME280;35415;47.870;16.058;2023-02-01T08:53:23;97236.50;;;6.69;58.58
49515;BME280;35415;47.870;16.058;2023-02-01T08:55:50;97246.72;;;6.72;57.28
49515;BME280;35415;47.870;16.058;2023-02-01T08:58:17;97249.97;;;6.74;57.85
49515;BME280;35415;47.870;16.058;2023-02-01T09:00:46;97258.53;;;6.76;57.25
49515;BME280;35415;47.870;16.058;2023-02-01T09:03:14;97255.44;;;6.68;57.10
49515;BME280;35415;47.870;16.058;2023-02-01T09:05:41;97272.53;;;6.83;56.49
49515;BME280;35415;47.870;16.058;2023-02-01T09:08:08;97340.44;;;6.82;56.55
49515;BME280;35415;47.870;16.058;2023-02-01T09:10:36;97283.72;;;6.80;56.25
49515;BME280;35415;47.870;16.058;2023-02-01T09:13:03;97294.09;;;6.77;56.46
49515;BME280;35415;47.870;16.058;2023-02-01T09:15:30;97297.84;;;6.76;56.16
49515;BME280;35415;47.870;16.058;2023-02-01T09:17:58;97276.28;;;6.66;56.39
49515;BME280;35415;47.870;16.058;2023-02-01T09:20:25;97283.56;;;6.70;56.71
49515;BME280;35415;47.870;16.058;2023-02-01T09:22:52;97290.31;;;6.73;56.11
49515;BME280;35415;47.870;16.058;2023-02-01T09:25:21;97292.38;;;6.71;56.04
49515;BME280;35415;47.870;16.058;2023-02-01T09:27:48;97310.78;;;6.67;55.79
49515;BME280;35415;47.870;16.058;2023-02-01T09:30:15;97290.13;;;6.62;56.24
49515;BME280;35415;47.870;16.058;2023-02-01T09:32:43;97297.09;;;6.63;56.71
49515;BME280;35415;47.870;16.058;2023-02-01T09:35:11;97310.94;;;6.60;56.78
49515;BME280;35415;47.870;16.058;2023-02-01T09:37:38;97307.44;;;6.60;57.25
49515;BME280;35415;47.870;16.058;2023-02-01T09:40:08;97304.09;;;6.53;57.92
49515;BME280;35415;47.870;16.058;2023-02-01T09:42:52;97289.22;;;6.57;58.83
49515;BME280;35415;47.870;16.058;2023-02-01T09:45:28;97312.94;;;6.53;59.99
49515;BME280;35415;47.870;16.058;2023-02-01T09:47:57;97306.06;;;6.57;60.49
49515;BME280;35415;47.870;16.058;2023-02-01T09:50:34;97314.16;;;6.46;62.39
49515;BME280;35415;47.870;16.058;2023-02-01T09:53:06;97305.03;;;6.30;64.46
49515;BME280;35415;47.870;16.058;2023-02-01T09:55:41;97319.13;;;6.25;67.23
49515;BME280;35415;47.870;16.058;2023-02-01T09:58:13;97316.25;;;6.15;67.78
49515;BME280;35415;47.870;16.058;2023-02-01T10:00:47;97332.66;;;6.07;70.07
49515;BME280;35415;47.870;16.058;2023-02-01T10:03:17;97326.38;;;6.01;71.59
49515;BME280;35415;47.870;16.058;2023-02-01T10:05:59;97340.34;;;5.92;73.09
49515;BME280;35415;47.870;16.058;2023-02-01T10:08:38;97327.00;;;5.80;75.60
49515;BME280;35415;47.870;16.058;2023-02-01T10:11:17;97314.69;;;5.67;76.43
49515;BME280;35415;47.870;16.058;2023-02-01T10:13:54;97314.50;;;5.57;78.24
49515;BME280;35415;47.870;16.058;2023-02-01T10:16:34;97314.84;;;5.49;78.99
49515;BME280;35415;47.870;16.058;2023-02-01T10:19:15;97318.47;;;5.43;81.01
49515;BME280;35415;47.870;16.058;2023-02-01T10:21:54;97313.47;;;5.23;82.84
49515;BME280;35415;47.870;16.058;2023-02-01T10:24:39;97311.63;;;5.24;82.31
49515;BME280;35415;47.870;16.058;2023-02-01T10:27:13;97311.50;;;5.19;83.83
49515;BME280;35415;47.870;16.058;2023-02-01T10:29:42;97318.47;;;5.08;85.56
49515;BME280;35415;47.870;16.058;2023-02-01T10:32:16;97247.03;;;4.63;85.94
49515;BME280;35415;47.870;16.058;2023-02-01T10:34:47;97310.69;;;4.95;86.96
49515;BME280;35415;47.870;16.058;2023-02-01T10:37:24;97310.91;;;4.93;87.31
49515;BME280;35415;47.870;16.058;2023-02-01T10:39:53;97307.66;;;4.91;87.97
49515;BME280;35415;47.870;16.058;2023-02-01T10:42:25;97297.09;;;4.84;89.53
49515;BME280;35415;47.870;16.058;2023-02-01T10:44:54;97295.94;;;4.80;88.97
49515;BME280;35415;47.870;16.058;2023-02-01T10:47:22;97267.19;;;4.59;89.52
49515;BME280;35415;47.870;16.058;2023-02-01T10:49:57;97302.44;;;4.73;89.54
49515;BME280;35415;47.870;16.058;2023-02-01T10:52:36;97311.22;;;4.73;90.35
49515;BME280;35415;47.870;16.058;2023-02-01T10:55:27;97297.91;;;4.73;90.61
49515;BME280;35415;47.870;16.058;2023-02-01T10:57:59;97314.34;;;4.70;91.45
49515;BME280;35415;47.870;16.058;2023-02-01T11:00:26;97309.69;;;4.66;91.84
49515;BME280;35415;47.870;16.058;2023-02-01T11:02:54;97303.78;;;4.64;92.94
49515;BME280;35415;47.870;16.058;2023-02-01T11:05:22;97298.09;;;4.60;93.22
49515;BME280;35415;47.870;16.058;2023-02-01T11:07:53;97290.13;;;4.60;93.53
49515;BME280;35415;47.870;16.058;2023-02-01T11:10:37;97273.31;;;4.60;93.18
49515;BME280;35415;47.870;16.058;2023-02-01T11:13:12;97249.91;;;4.50;93.43
49515;BME280;35415;47.870;16.058;2023-02-01T11:15:43;97261.50;;;4.56;93.67
49515;BME280;35415;47.870;16.058;2023-02-01T11:18:18;97277.59;;;4.61;93.96
49515;BME280;35415;47.870;16.058;2023-02-01T11:20:46;97284.56;;;4.62;94.52
49515;BME280;35415;47.870;16.058;2023-02-01T11:23:21;97276.00;;;4.60;94.32
49515;BME280;35415;47.870;16.058;2023-02-01T11:25:51;97255.81;;;4.52;94.69
49515;BME280;35415;47.870;16.058;2023-02-01T11:28:22;97257.81;;;4.57;94.47
49515;BME280;35415;47.870;16.058;2023-02-01T11:30:51;97260.13;;;4.65;94.54
49515;BME280;35415;47.870;16.058;2023-02-01T11:33:24;97252.13;;;4.65;94.63
49515;BME280;35415;47.870;16.058;2023-02-01T11:35:55;97218.97;;;4.37;94.62
49515;BME280;35415;47.870;16.058;2023-02-01T11:38:27;97262.78;;;4.65;94.72
49515;BME280;35415;47.870;16.058;2023-02-01T11:41:11;97259.78;;;4.61;94.54
49515;BME280;35415;47.870;16.058;2023-02-01T11:43:51;97270.31;;;4.68;93.90
49515;BME280;35415;47.870;16.058;2023-02-01T11:46:19;97245.75;;;4.66;94.56
49515;BME280;35415;47.870;16.058;2023-02-01T11:48:52;97250.03;;;4.67;94.61
49515;BME280;35415;47.870;16.058;2023-02-01T11:51:27;97266.41;;;4.70;94.49
49515;BME280;35415;47.870;16.058;2023-02-01T11:54:11;97260.81;;;4.60;94.84
49515;BME280;35415;47.870;16.058;2023-02-01T11:56:46;97230.91;;;4.46;94.88
49515;BME280;35415;47.870;16.058;2023-02-01T11:59:36;97202.84;;;4.32;94.79
49515;BME280;35415;47.870;16.058;2023-02-01T12:02:29;97244.38;;;4.63;94.95
49515;BME280;35415;47.870;16.058;2023-02-01T12:05:13;97256.75;;;4.58;94.55
49515;BME280;35415;47.870;16.058;2023-02-01T12:07:53;97261.50;;;4.56;94.94
49515;BME280;35415;47.870;16.058;2023-02-01T12:10:34;97287.22;;;4.62;95.16
49515;BME280;35415;47.870;16.058;2023-02-01T12:13:13;97282.13;;;4.60;95.25
49515;BME280;35415;47.870;16.058;2023-02-01T12:15:52;97289.31;;;4.60;95.73
49515;BME280;35415;47.870;16.058;2023-02-01T12:18:49;97278.53;;;4.55;94.98
49515;BME280;35415;47.870;16.058;2023-02-01T12:21:32;97268.53;;;4.50;95.79
49515;BME280;35415;47.870;16.058;2023-02-01T12:27:47;97286.41;;;4.61;95.43
49515;BME280;35415;47.870;16.058;2023-02-01T12:33:17;97255.09;;;4.45;95.95
49515;BME280;35415;47.870;16.058;2023-02-01T12:35:57;97278.06;;;4.58;96.01
49515;BME280;35415;47.870;16.058;2023-02-01T12:38:44;97266.59;;;4.57;95.26
49515;BME280;35415;47.870;16.058;2023-02-01T12:41:45;97273.31;;;4.60;95.62
49515;BME280;35415;47.870;16.058;2023-02-01T12:44:25;97320.22;;;4.61;95.49
49515;BME280;35415;47.870;16.058;2023-02-01T12:46:57;97275.06;;;4.66;91.60
49515;BME280;35415;47.870;16.058;2023-02-01T12:49:31;97264.16;;;4.67;90.37
49515;BME280;35415;47.870;16.058;2023-02-01T12:52:05;97287.81;;;4.64;91.83
49515;BME280;35415;47.870;16.058;2023-02-01T12:54:38;97282.59;;;4.69;90.65
49515;BME280;35415;47.870;16.058;2023-02-01T12:57:10;97282.97;;;4.72;91.05
49515;BME280;35415;47.870;16.058;2023-02-01T12:59:44;97288.63;;;4.76;89.90
49515;BME280;35415;47.870;16.058;2023-02-01T13:02:16;97240.44;;;4.54;89.99
49515;BME280;35415;47.870;16.058;2023-02-01T13:04:55;97283.66;;;4.79;87.66
49515;BME280;35415;47.870;16.058;2023-02-01T13:07:30;97283.19;;;4.71;86.62
49515;BME280;35415;47.870;16.058;2023-02-01T13:10:01;97278.78;;;4.76;87.37
49515;BME280;35415;47.870;16.058;2023-02-01T13:12:32;97294.66;;;4.83;86.63
49515;BME280;35415;47.870;16.058;2023-02-01T13:15:09;97286.56;;;4.78;88.06
49515;BME280;35415;47.870;16.058;2023-02-01T13:17:40;97261.66;;;4.72;88.77
49515;BME280;35415;47.870;16.058;2023-02-01T13:20:15;97256.91;;;4.74;87.71
49515;BME280;35415;47.870;16.058;2023-02-01T13:22:45;97226.63;;;4.45;88.85
49515;BME280;35415;47.870;16.058;2023-02-01T13:25:17;97230.31;;;4.44;87.69
49515;BME280;35415;47.870;16.058;2023-02-01T13:27:46;97242.84;;;4.67;88.28
49515;BME280;35415;47.870;16.058;2023-02-01T13:30:17;97244.13;;;4.65;88.14
49515;BME280;35415;47.870;16.058;2023-02-01T13:33:07;97229.19;;;4.64;88.16